sensor_id;sensor_type;location;lat;lon;timestamp;P1;durP1;ratioP1;P2;durP2;ratioP2
25824;SDS011;13658;44.534;18.694;2023-04-25T00:00:00;38.05;;;24.75;;
25824;SDS011;13658;44.534;18.694;2023-04-25T00:02:26;38.00;;;23.88;;
25824;SDS011;13658;44.534;18.694;2023-04-25T00:04:56;40.30;;;24.92;;
25824;SDS011;13658;44.534;18.694;2023-04-25T00:07:24;41.35;;;25.63;;
25824;SDS011;13658;44.534;18.694;2023-04-25T00:09:50;41.60;;;25.63;;
25824;SDS011;13658;44.534;18.694;2023-04-25T00:12:16;36.95;;;24.88;;
25824;SDS011;13658;44.534;18.694;2023-04-25T00:14:42;35.92;;;24.35;;
25824;SDS011;13658;44.534;18.694;2023-04-25T00:17:09;36.80;;;24.50;;
25824;SDS011;13658;44.534;18.694;2023-04-25T00:19:36;36.88;;;24.23;;
25824;SDS011;13658;44.534;18.694;2023-04-25T00:22:03;36.45;;;23.63;;
25824;SDS011;13658;44.534;18.694;2023-04-25T00:24:30;28.75;;;19.52;;
25824;SDS011;13658;44.534;18.694;2023-04-25T00:26:56;25.83;;;17.60;;
25824;SDS011;13658;44.534;18.694;2023-04-25T00:29:22;22.75;;;15.07;;
25824;SDS011;13658;44.534;18.694;2023-04-25T00:31:48;22.10;;;14.07;;
25824;SDS011;13658;44.534;18.694;2023-04-25T00:34:15;23.05;;;13.98;;
25824;SDS011;13658;44.534;18.694;2023-04-25T00:36:40;22.55;;;13.63;;
25824;SDS011;13658;44.534;18.694;2023-04-25T00:39:06;19.75;;;12.10;;
25824;SDS011;13658;44.534;18.694;2023-04-25T00:41:33;16.45;;;11.10;;
25824;SDS011;13658;44.534;18.694;2023-04-25T00:43:59;14.73;;;9.90;;
25824;SDS011;13658;44.534;18.694;2023-04-25T00:46:26;15.48;;;10.52;;
25824;SDS011;13658;44.534;18.694;2023-04-25T00:48:52;15.10;;;9.45;;
25824;SDS011;13658;44.534;18.694;2023-04-25T00:51:21;13.70;;;8.48;;
25824;SDS011;13658;44.534;18.694;2023-04-25T00:53:48;12.18;;;7.95;;
25824;SDS011;13658;44.534;18.694;2023-04-25T00:56:16;15.43;;;9.25;;
25824;SDS011;13658;44.534;18.694;2023-04-25T00:58:42;12.88;;;8.13;;
25824;SDS011;13658;44.534;18.694;2023-04-25T01:01:08;13.23;;;8.45;;
25824;SDS011;13658;44.534;18.694;2023-04-25T01:03:37;11.75;;;8.13;;
25824;SDS011;13658;44.534;18.694;2023-04-25T01:06:09;12.98;;;8.23;;
25824;SDS011;13658;44.534;18.694;2023-04-25T01:08:37;12.57;;;7.40;;
25824;SDS011;13658;44.534;18.694;2023-04-25T01:11:04;12.73;;;7.85;;
25824;SDS011;13658;44.534;18.694;2023-04-25T01:13:31;11.45;;;7.35;;
25824;SDS011;13658;44.534;18.694;2023-04-25T01:15:58;13.25;;;6.88;;
25824;SDS011;13658;44.534;18.694;2023-04-25T01:18:24;11.20;;;6.80;;
25824;SDS011;13658;44.534;18.694;2023-04-25T01:20:51;9.00;;;6.10;;
25824;SDS011;13658;44.534;18.694;2023-04-25T01:23:20;9.77;;;6.80;;
25824;SDS011;13658;44.534;18.694;2023-04-25T01:25:47;10.18;;;6.47;;
25824;SDS011;13658;44.534;18.694;2023-04-25T01:28:14;9.27;;;5.97;;
25824;SDS011;13658;44.534;18.694;2023-04-25T01:30:41;7.18;;;4.97;;
25824;SDS011;13658;44.534;18.694;2023-04-25T01:33:08;8.60;;;5.18;;
25824;SDS011;13658;44.534;18.694;2023-04-25T01:35:34;6.55;;;4.63;;
25824;SDS011;13658;44.534;18.694;2023-04-25T01:38:00;7.95;;;5.03;;
25824;SDS011;13658;44.534;18.694;2023-04-25T01:40:26;7.78;;;4.70;;
25824;SDS011;13658;44.534;18.694;2023-04-25T01:42:53;6.97;;;4.80;;
25824;SDS011;13658;44.534;18.694;2023-04-25T01:45:20;8.73;;;5.30;;
25824;SDS011;13658;44.534;18.694;2023-04-25T01:47:47;10.70;;;6.72;;
25824;SDS011;13658;44.534;18.694;2023-04-25T01:50:15;13.82;;;7.38;;
25824;SDS011;13658;44.534;18.694;2023-04-25T01:52:43;24.67;;;10.45;;
25824;SDS011;13658;44.534;18.694;2023-04-25T01:55:10;22.92;;;10.38;;
25824;SDS011;13658;44.534;18.694;2023-04-25T01:57:41;29.73;;;11.93;;
25824;SDS011;13658;44.534;18.694;2023-04-25T02:00:08;25.17;;;12.25;;
25824;SDS011;13658;44.534;18.694;2023-04-25T02:02:40;29.15;;;13.63;;
25824;SDS011;13658;44.534;18.694;2023-04-25T02:05:21;27.40;;;13.57;;
25824;SDS011;13658;44.534;18.694;2023-04-25T02:07:48;18.90;;;9.15;;
25824;SDS011;13658;44.534;18.694;2023-04-25T02:10:14;15.32;;;7.78;;
25824;SDS011;13658;44.534;18.694;2023-04-25T02:13:00;16.95;;;6.97;;
25824;SDS011;13658;44.534;18.694;2023-04-25T02:15:53;10.25;;;4.93;;
25824;SDS011;13658;44.534;18.694;2023-04-25T02:18:19;6.47;;;4.13;;
25824;SDS011;13658;44.534;18.694;2023-04-25T02:20:46;8.75;;;3.97;;
25824;SDS011;13658;44.534;18.694;2023-04-25T02:23:13;8.13;;;3.78;;
25824;SDS011;13658;44.534;18.694;2023-04-25T02:25:44;7.65;;;3.55;;
25824;SDS011;13658;44.534;18.694;2023-04-25T02:28:10;6.85;;;3.25;;
25824;SDS011;13658;44.534;18.694;2023-04-25T02:30:36;5.80;;;2.60;;
25824;SDS011;13658;44.534;18.694;2023-04-25T02:33:04;5.30;;;2.85;;
25824;SDS011;13658;44.534;18.694;2023-04-25T02:35:30;3.70;;;2.65;;
25824;SDS011;13658;44.534;18.694;2023-04-25T02:37:56;3.83;;;2.55;;
25824;SDS011;13658;44.534;18.694;2023-04-25T02:40:22;4.75;;;2.33;;
25824;SDS011;13658;44.534;18.694;2023-04-25T02:42:53;3.25;;;2.40;;
25824;SDS011;13658;44.534;18.694;2023-04-25T02:45:19;4.65;;;2.50;;
25824;SDS011;13658;44.534;18.694;2023-04-25T02:47:45;3.53;;;2.13;;
25824;SDS011;13658;44.534;18.694;2023-04-25T02:50:11;2.30;;;1.70;;
25824;SDS011;13658;44.534;18.694;2023-04-25T02:52:38;1.10;;;0.90;;
25824;SDS011;13658;44.534;18.694;2023-04-25T02:55:12;2.28;;;1.00;;
25824;SDS011;13658;44.534;18.694;2023-04-25T02:57:39;4.40;;;2.28;;
25824;SDS011;13658;44.534;18.694;2023-04-25T03:00:06;3.22;;;1.55;;
25824;SDS011;13658;44.534;18.694;2023-04-25T03:02:32;3.28;;;1.27;;
25824;SDS011;13658;44.534;18.694;2023-04-25T03:04:58;2.15;;;1.02;;
25824;SDS011;13658;44.534;18.694;2023-04-25T03:07:26;2.17;;;1.35;;
25824;SDS011;13658;44.534;18.694;2023-04-25T03:09:52;7.40;;;3.40;;
25824;SDS011;13658;44.534;18.694;2023-04-25T03:12:18;3.38;;;1.70;;
25824;SDS011;13658;44.534;18.694;2023-04-25T03:14:44;5.18;;;3.70;;
25824;SDS011;13658;44.534;18.694;2023-04-25T03:17:10;4.15;;;2.80;;
25824;SDS011;13658;44.534;18.694;2023-04-25T03:19:36;3.85;;;1.60;;
25824;SDS011;13658;44.534;18.694;2023-04-25T03:22:02;2.92;;;1.90;;
25824;SDS011;13658;44.534;18.694;2023-04-25T03:24:28;5.07;;;2.38;;
25824;SDS011;13658;44.534;18.694;2023-04-25T03:26:54;3.10;;;2.38;;
25824;SDS011;13658;44.534;18.694;2023-04-25T03:29:20;3.65;;;1.70;;
25824;SDS011;13658;44.534;18.694;2023-04-25T03:31:50;3.88;;;2.30;;
25824;SDS011;13658;44.534;18.694;2023-04-25T03:34:18;3.60;;;1.95;;
25824;SDS011;13658;44.534;18.694;2023-04-25T03:36:44;3.88;;;2.10;;
25824;SDS011;13658;44.534;18.694;2023-04-25T03:39:14;4.95;;;2.38;;
25824;SDS011;13658;44.534;18.694;2023-04-25T03:41:45;4.72;;;3.05;;
25824;SDS011;13658;44.534;18.694;2023-04-25T03:44:13;5.97;;;3.97;;
25824;SDS011;13658;44.534;18.694;2023-04-25T03:46:39;5.20;;;3.13;;
25824;SDS011;13658;44.534;18.694;2023-04-25T03:49:05;3.95;;;2.50;;
25824;SDS011;13658;44.534;18.694;2023-04-25T03:51:51;5.32;;;2.40;;
25824;SDS011;13658;44.534;18.694;2023-04-25T03:54:18;6.20;;;4.72;;
25824;SDS011;13658;44.534;18.694;2023-04-25T03:56:57;4.07;;;3.53;;
25824;SDS011;13658;44.534;18.694;2023-04-25T03:59:26;5.43;;;3.17;;
25824;SDS011;13658;44.534;18.694;2023-04-25T04:01:52;3.88;;;2.83;;
25824;SDS011;13658;44.534;18.694;2023-04-25T04:04:18;6.15;;;4.00;;
25824;SDS011;13658;44.534;18.694;2023-04-25T04:06:44;5.65;;;3.08;;
25824;SDS011;13658;44.534;18.694;2023-04-25T04:11:46;5.45;;;3.63;;
25824;SDS011;13658;44.534;18.694;2023-04-25T04:14:12;6.93;;;3.95;;
25824;SDS011;13658;44.534;18.694;2023-04-25T04:16:43;5.28;;;3.65;;
25824;SDS011;13658;44.534;18.694;2023-04-25T04:19:10;5.82;;;3.67;;
25824;SDS011;13658;44.534;18.694;2023-04-25T04:21:38;6.85;;;3.72;;
25824;SDS011;13658;44.534;18.694;2023-04-25T04:24:05;4.75;;;3.70;;
25824;SDS011;13658;44.534;18.694;2023-04-25T04:26:42;10.02;;;7.15;;
25824;SDS011;13658;44.534;18.694;2023-04-25T04:29:36;9.45;;;6.20;;
25824;SDS011;13658;44.534;18.694;2023-04-25T04:32:25;7.60;;;5.45;;
25824;SDS011;13658;44.534;18.694;2023-04-25T04:34:53;7.78;;;4.47;;
25824;SDS011;13658;44.534;18.694;2023-04-25T04:37:21;9.70;;;5.55;;
25824;SDS011;13658;44.534;18.694;2023-04-25T04:39:48;6.25;;;4.57;;
25824;SDS011;13658;44.534;18.694;2023-04-25T04:42:22;6.75;;;4.82;;
25824;SDS011;13658;44.534;18.694;2023-04-25T04:44:59;6.28;;;4.45;;
25824;SDS011;13658;44.534;18.694;2023-04-25T04:47:42;7.07;;;4.70;;
25824;SDS011;13658;44.534;18.694;2023-04-25T04:50:16;6.18;;;4.15;;
25824;SDS011;13658;44.534;18.694;2023-04-25T04:53:18;7.25;;;5.13;;
25824;SDS011;13658;44.534;18.694;2023-04-25T04:56:05;8.00;;;4.50;;
25824;SDS011;13658;44.534;18.694;2023-04-25T04:58:48;5.90;;;4.07;;
25824;SDS011;13658;44.534;18.694;2023-04-25T05:01:37;9.05;;;3.63;;
25824;SDS011;13658;44.534;18.694;2023-04-25T05:04:15;5.32;;;3.72;;
25824;SDS011;13658;44.534;18.694;2023-04-25T05:07:10;6.50;;;4.50;;
25824;SDS011;13658;44.534;18.694;2023-04-25T05:09:57;9.45;;;4.93;;
25824;SDS011;13658;44.534;18.694;2023-04-25T05:12:41;12.00;;;6.63;;
25824;SDS011;13658;44.534;18.694;2023-04-25T05:15:17;13.75;;;8.70;;
25824;SDS011;13658;44.534;18.694;2023-04-25T05:18:05;13.45;;;8.18;;
25824;SDS011;13658;44.534;18.694;2023-04-25T05:20:45;16.30;;;8.95;;
25824;SDS011;13658;44.534;18.694;2023-04-25T05:23:34;20.08;;;11.40;;
25824;SDS011;13658;44.534;18.694;2023-04-25T05:30:03;23.15;;;12.27;;
25824;SDS011;13658;44.534;18.694;2023-04-25T05:32:45;19.95;;;10.93;;
25824;SDS011;13658;44.534;18.694;2023-04-25T05:35:12;19.88;;;11.35;;
25824;SDS011;13658;44.534;18.694;2023-04-25T05:37:44;21.67;;;10.18;;
25824;SDS011;13658;44.534;18.694;2023-04-25T05:40:12;20.58;;;11.88;;
25824;SDS011;13658;44.534;18.694;2023-04-25T05:42:51;12.25;;;6.75;;
25824;SDS011;13658;44.534;18.694;2023-04-25T05:45:35;17.23;;;8.85;;
25824;SDS011;13658;44.534;18.694;2023-04-25T05:48:28;14.05;;;8.05;;
25824;SDS011;13658;44.534;18.694;2023-04-25T05:51:01;15.35;;;7.43;;
25824;SDS011;13658;44.534;18.694;2023-04-25T05:53:36;14.98;;;8.85;;
25824;SDS011;13658;44.534;18.694;2023-04-25T05:56:03;11.45;;;7.43;;
25824;SDS011;13658;44.534;18.694;2023-04-25T05:58:29;11.75;;;7.40;;
25824;SDS011;13658;44.534;18.694;2023-04-25T06:00:57;12.43;;;8.32;;
25824;SDS011;13658;44.534;18.694;2023-04-25T06:03:23;11.93;;;7.55;;
25824;SDS011;13658;44.534;18.694;2023-04-25T06:05:49;11.07;;;6.35;;
25824;SDS011;13658;44.534;18.694;2023-04-25T06:08:15;16.70;;;9.48;;
25824;SDS011;13658;44.534;18.694;2023-04-25T06:10:42;15.18;;;8.45;;
25824;SDS011;13658;44.534;18.694;2023-04-25T06:13:08;15.27;;;8.65;;
25824;SDS011;13658;44.534;18.694;2023-04-25T06:15:35;9.70;;;6.68;;
25824;SDS011;13658;44.534;18.694;2023-04-25T06:18:01;11.30;;;6.50;;
25824;SDS011;13658;44.534;18.694;2023-04-25T06:20:27;11.32;;;7.28;;
25824;SDS011;13658;44.534;18.694;2023-04-25T06:22:56;12.35;;;7.05;;
25824;SDS011;13658;44.534;18.694;2023-04-25T06:25:45;12.57;;;8.80;;
25824;SDS011;13658;44.534;18.694;2023-04-25T06:28:11;12.68;;;8.10;;
25824;SDS011;13658;44.534;18.694;2023-04-25T06:30:39;14.32;;;7.55;;
25824;SDS011;13658;44.534;18.694;2023-04-25T06:33:09;17.25;;;9.60;;
25824;SDS011;13658;44.534;18.694;2023-04-25T06:35:37;15.13;;;8.30;;
25824;SDS011;13658;44.534;18.694;2023-04-25T06:38:04;15.70;;;9.18;;
25824;SDS011;13658;44.534;18.694;2023-04-25T06:40:31;14.60;;;8.20;;
25824;SDS011;13658;44.534;18.694;2023-04-25T06:42:57;14.38;;;9.13;;
25824;SDS011;13658;44.534;18.694;2023-04-25T06:45:55;15.88;;;9.68;;
25824;SDS011;13658;44.534;18.694;2023-04-25T06:48:24;19.17;;;10.95;;
25824;SDS011;13658;44.534;18.694;2023-04-25T06:50:51;19.02;;;12.60;;
25824;SDS011;13658;44.534;18.694;2023-04-25T06:53:18;20.42;;;13.48;;
25824;SDS011;13658;44.534;18.694;2023-04-25T06:55:48;21.33;;;14.07;;
25824;SDS011;13658;44.534;18.694;2023-04-25T06:58:20;22.65;;;15.73;;
25824;SDS011;13658;44.534;18.694;2023-04-25T07:01:12;22.42;;;15.75;;
25824;SDS011;13658;44.534;18.694;2023-04-25T07:03:38;22.88;;;16.50;;
25824;SDS011;13658;44.534;18.694;2023-04-25T07:06:10;25.35;;;16.23;;
25824;SDS011;13658;44.534;18.694;2023-04-25T07:08:37;24.90;;;15.55;;
25824;SDS011;13658;44.534;18.694;2023-04-25T07:11:03;29.90;;;17.70;;
25824;SDS011;13658;44.534;18.694;2023-04-25T07:13:29;34.83;;;19.48;;
25824;SDS011;13658;44.534;18.694;2023-04-25T07:15:55;37.47;;;22.90;;
25824;SDS011;13658;44.534;18.694;2023-04-25T07:18:22;36.28;;;20.48;;
25824;SDS011;13658;44.534;18.694;2023-04-25T07:20:49;28.15;;;17.83;;
25824;SDS011;13658;44.534;18.694;2023-04-25T07:23:15;27.67;;;16.45;;
25824;SDS011;13658;44.534;18.694;2023-04-25T07:25:41;26.23;;;15.93;;
25824;SDS011;13658;44.534;18.694;2023-04-25T07:28:08;23.27;;;14.50;;
25824;SDS011;13658;44.534;18.694;2023-04-25T07:30:35;26.70;;;16.05;;
25824;SDS011;13658;44.534;18.694;2023-04-25T07:33:02;27.98;;;17.52;;
25824;SDS011;13658;44.534;18.694;2023-04-25T07:35:29;26.95;;;15.32;;
25824;SDS011;13658;44.534;18.694;2023-04-25T07:37:55;23.70;;;14.38;;
25824;SDS011;13658;44.534;18.694;2023-04-25T07:40:20;21.23;;;13.93;;
25824;SDS011;13658;44.534;18.694;2023-04-25T07:42:58;22.13;;;11.43;;
25824;SDS011;13658;44.534;18.694;2023-04-25T07:45:35;19.05;;;13.77;;
25824;SDS011;13658;44.534;18.694;2023-04-25T07:48:02;27.25;;;16.60;;
25824;SDS011;13658;44.534;18.694;2023-04-25T07:50:30;21.17;;;13.57;;
25824;SDS011;13658;44.534;18.694;2023-04-25T07:52:57;21.48;;;13.63;;
25824;SDS011;13658;44.534;18.694;2023-04-25T07:55:31;21.67;;;13.73;;
25824;SDS011;13658;44.534;18.694;2023-04-25T08:00:33;25.55;;;15.20;;
25824;SDS011;13658;44.534;18.694;2023-04-25T08:03:34;26.38;;;16.75;;
25824;SDS011;13658;44.534;18.694;2023-04-25T08:06:04;21.77;;;13.32;;
25824;SDS011;13658;44.534;18.694;2023-04-25T08:08:33;22.00;;;14.13;;
25824;SDS011;13658;44.534;18.694;2023-04-25T08:11:00;25.10;;;16.92;;
25824;SDS011;13658;44.534;18.694;2023-04-25T08:13:26;28.17;;;18.30;;
25824;SDS011;13658;44.534;18.694;2023-04-25T08:15:52;28.73;;;18.35;;
25824;SDS011;13658;44.534;18.694;2023-04-25T08:18:19;44.28;;;22.67;;
25824;SDS011;13658;44.534;18.694;2023-04-25T08:20:47;28.52;;;19.70;;
25824;SDS011;13658;44.534;18.694;2023-04-25T08:23:14;23.02;;;17.13;;
25824;SDS011;13658;44.534;18.694;2023-04-25T08:25:50;22.65;;;15.38;;
25824;SDS011;13658;44.534;18.694;2023-04-25T08:28:20;26.55;;;16.45;;
25824;SDS011;13658;44.534;18.694;2023-04-25T08:30:46;28.77;;;18.45;;
25824;SDS011;13658;44.534;18.694;2023-04-25T08:33:14;26.40;;;16.40;;
25824;SDS011;13658;44.534;18.694;2023-04-25T08:35:44;22.98;;;13.15;;
25824;SDS011;13658;44.534;18.694;2023-04-25T08:38:11;21.05;;;12.35;;
25824;SDS011;13658;44.534;18.694;2023-04-25T08:40:38;23.50;;;15.02;;
25824;SDS011;13658;44.534;18.694;2023-04-25T08:43:09;18.35;;;12.35;;
25824;SDS011;13658;44.534;18.694;2023-04-25T08:45:41;25.90;;;13.88;;
25824;SDS011;13658;44.534;18.694;2023-04-25T08:48:12;15.20;;;9.80;;
25824;SDS011;13658;44.534;18.694;2023-04-25T08:50:39;15.70;;;11.18;;
25824;SDS011;13658;44.534;18.694;2023-04-25T08:53:08;14.25;;;10.55;;
25824;SDS011;13658;44.534;18.694;2023-04-25T08:55:42;16.73;;;11.25;;
25824;SDS011;13658;44.534;18.694;2023-04-25T08:58:09;17.30;;;13.00;;
25824;SDS011;13658;44.534;18.694;2023-04-25T09:00:37;16.52;;;9.52;;
25824;SDS011;13658;44.534;18.694;2023-04-25T09:03:03;12.85;;;8.77;;
25824;SDS011;13658;44.534;18.694;2023-04-25T09:05:34;9.45;;;7.63;;
25824;SDS011;13658;44.534;18.694;2023-04-25T09:08:01;15.77;;;9.93;;
25824;SDS011;13658;44.534;18.694;2023-04-25T09:10:28;14.63;;;8.50;;
25824;SDS011;13658;44.534;18.694;2023-04-25T09:13:09;8.20;;;6.70;;
25824;SDS011;13658;44.534;18.694;2023-04-25T09:16:01;13.65;;;7.03;;
25824;SDS011;13658;44.534;18.694;2023-04-25T09:18:42;9.27;;;6.70;;
25824;SDS011;13658;44.534;18.694;2023-04-25T09:21:10;13.05;;;8.00;;
25824;SDS011;13658;44.534;18.694;2023-04-25T09:23:44;13.05;;;7.07;;
25824;SDS011;13658;44.534;18.694;2023-04-25T09:26:16;9.23;;;5.40;;
25824;SDS011;13658;44.534;18.694;2023-04-25T09:28:46;5.05;;;4.28;;
25824;SDS011;13658;44.534;18.694;2023-04-25T09:31:21;16.02;;;7.25;;
25824;SDS011;13658;44.534;18.694;2023-04-25T09:34:01;10.60;;;7.32;;
25824;SDS011;13658;44.534;18.694;2023-04-25T09:36:29;5.50;;;4.17;;
25824;SDS011;13658;44.534;18.694;2023-04-25T09:39:12;5.38;;;3.70;;
25824;SDS011;13658;44.534;18.694;2023-04-25T09:41:45;8.63;;;5.45;;
25824;SDS011;13658;44.534;18.694;2023-04-25T09:44:12;14.82;;;8.45;;
25824;SDS011;13658;44.534;18.694;2023-04-25T09:46:40;11.27;;;6.50;;
25824;SDS011;13658;44.534;18.694;2023-04-25T09:49:13;6.07;;;3.92;;
25824;SDS011;13658;44.534;18.694;2023-04-25T09:51:59;9.27;;;4.03;;
25824;SDS011;13658;44.534;18.694;2023-04-25T09:54:35;7.10;;;4.75;;
25824;SDS011;13658;44.534;18.694;2023-04-25T09:57:11;5.28;;;3.55;;
25824;SDS011;13658;44.534;18.694;2023-04-25T09:59:42;10.13;;;4.68;;
25824;SDS011;13658;44.534;18.694;2023-04-25T10:02:14;10.50;;;5.95;;
25824;SDS011;13658;44.534;18.694;2023-04-25T10:04:42;10.38;;;4.97;;
25824;SDS011;13658;44.534;18.694;2023-04-25T10:07:25;9.95;;;6.93;;
25824;SDS011;13658;44.534;18.694;2023-04-25T10:09:54;5.30;;;4.53;;
25824;SDS011;13658;44.534;18.694;2023-04-25T10:12:28;8.05;;;5.75;;
25824;SDS011;13658;44.534;18.694;2023-04-25T10:14:54;7.70;;;4.90;;
25824;SDS011;13658;44.534;18.694;2023-04-25T10:17:21;6.65;;;5.68;;
25824;SDS011;13658;44.534;18.694;2023-04-25T10:19:48;6.57;;;4.85;;
25824;SDS011;13658;44.534;18.694;2023-04-25T10:22:17;4.57;;;3.47;;
25824;SDS011;13658;44.534;18.694;2023-04-25T10:25:02;5.22;;;3.30;;
25824;SDS011;13658;44.534;18.694;2023-04-25T10:27:29;6.05;;;3.63;;
25824;SDS011;13658;44.534;18.694;2023-04-25T10:30:03;7.05;;;4.43;;
25824;SDS011;13658;44.534;18.694;2023-04-25T10:32:31;3.95;;;3.00;;
25824;SDS011;13658;44.534;18.694;2023-04-25T10:35:04;3.78;;;2.70;;
25824;SDS011;13658;44.534;18.694;2023-04-25T10:37:55;3.15;;;2.60;;
25824;SDS011;13658;44.534;18.694;2023-04-25T10:40:23;4.75;;;3.40;;
25824;SDS011;13658;44.534;18.694;2023-04-25T10:42:51;6.32;;;4.35;;
25824;SDS011;13658;44.534;18.694;2023-04-25T10:45:21;10.23;;;6.65;;
25824;SDS011;13658;44.534;18.694;2023-04-25T10:47:47;4.43;;;3.00;;
25824;SDS011;13658;44.534;18.694;2023-04-25T10:50:16;7.28;;;3.90;;
25824;SDS011;13658;44.534;18.694;2023-04-25T10:52:42;4.05;;;2.35;;
25824;SDS011;13658;44.534;18.694;2023-04-25T10:55:12;6.15;;;3.20;;
25824;SDS011;13658;44.534;18.694;2023-04-25T10:57:42;12.73;;;6.70;;
25824;SDS011;13658;44.534;18.694;2023-04-25T11:00:14;6.60;;;2.65;;
25824;SDS011;13658;44.534;18.694;2023-04-25T11:02:45;10.52;;;4.43;;
25824;SDS011;13658;44.534;18.694;2023-04-25T11:05:20;6.18;;;3.90;;
25824;SDS011;13658;44.534;18.694;2023-04-25T11:08:10;3.83;;;2.40;;
25824;SDS011;13658;44.534;18.694;2023-04-25T11:10:39;7.82;;;4.72;;
25824;SDS011;13658;44.534;18.694;2023-04-25T11:13:05;4.57;;;3.13;;
25824;SDS011;13658;44.534;18.694;2023-04-25T11:15:31;5.97;;;3.50;;
25824;SDS011;13658;44.534;18.694;2023-04-25T11:17:57;7.80;;;5.22;;
25824;SDS011;13658;44.534;18.694;2023-04-25T11:20:25;9.05;;;5.18;;
25824;SDS011;13658;44.534;18.694;2023-04-25T11:22:51;6.43;;;3.80;;
25824;SDS011;13658;44.534;18.694;2023-04-25T11:25:17;4.55;;;3.20;;
25824;SDS011;13658;44.534;18.694;2023-04-25T11:30:16;3.33;;;2.65;;
25824;SDS011;13658;44.534;18.694;2023-04-25T11:32:43;5.00;;;3.00;;
25824;SDS011;13658;44.534;18.694;2023-04-25T11:35:09;6.72;;;3.97;;
25824;SDS011;13658;44.534;18.694;2023-04-25T11:37:36;5.30;;;2.60;;
25824;SDS011;13658;44.534;18.694;2023-04-25T11:40:04;7.13;;;4.15;;
25824;SDS011;13658;44.534;18.694;2023-04-25T11:42:38;3.67;;;2.13;;
25824;SDS011;13658;44.534;18.694;2023-04-25T11:45:05;4.13;;;1.80;;
25824;SDS011;13658;44.534;18.694;2023-04-25T11:47:32;5.07;;;2.30;;
25824;SDS011;13658;44.534;18.694;2023-04-25T11:49:59;3.30;;;2.10;;
25824;SDS011;13658;44.534;18.694;2023-04-25T11:55:09;3.85;;;1.90;;
25824;SDS011;13658;44.534;18.694;2023-04-25T11:57:41;4.32;;;2.60;;
25824;SDS011;13658;44.534;18.694;2023-04-25T12:00:16;3.72;;;2.80;;
25824;SDS011;13658;44.534;18.694;2023-04-25T12:02:44;5.20;;;3.55;;
25824;SDS011;13658;44.534;18.694;2023-04-25T12:05:15;5.57;;;3.97;;
25824;SDS011;13658;44.534;18.694;2023-04-25T12:07:42;7.90;;;4.50;;
25824;SDS011;13658;44.534;18.694;2023-04-25T12:10:08;6.55;;;2.75;;
25824;SDS011;13658;44.534;18.694;2023-04-25T12:12:42;4.72;;;3.17;;
25824;SDS011;13658;44.534;18.694;2023-04-25T12:17:41;3.60;;;2.13;;
25824;SDS011;13658;44.534;18.694;2023-04-25T12:20:10;4.45;;;2.90;;
25824;SDS011;13658;44.534;18.694;2023-04-25T12:22:44;3.60;;;2.47;;
25824;SDS011;13658;44.534;18.694;2023-04-25T12:25:12;5.60;;;3.47;;
25824;SDS011;13658;44.534;18.694;2023-04-25T12:27:39;5.50;;;3.22;;
25824;SDS011;13658;44.534;18.694;2023-04-25T12:30:09;11.68;;;6.57;;
25824;SDS011;13658;44.534;18.694;2023-04-25T12:32:36;5.95;;;4.40;;
25824;SDS011;13658;44.534;18.694;2023-04-25T12:35:03;5.78;;;3.97;;
25824;SDS011;13658;44.534;18.694;2023-04-25T12:37:31;8.02;;;4.35;;
25824;SDS011;13658;44.534;18.694;2023-04-25T12:39:57;7.95;;;4.35;;
25824;SDS011;13658;44.534;18.694;2023-04-25T12:42:23;3.90;;;3.10;;
25824;SDS011;13658;44.534;18.694;2023-04-25T12:44:49;8.25;;;3.80;;
25824;SDS011;13658;44.534;18.694;2023-04-25T12:47:15;10.75;;;3.63;;
25824;SDS011;13658;44.534;18.694;2023-04-25T12:49:41;4.95;;;3.25;;
25824;SDS011;13658;44.534;18.694;2023-04-25T12:52:07;5.57;;;3.72;;
25824;SDS011;13658;44.534;18.694;2023-04-25T12:54:33;10.10;;;4.57;;
25824;SDS011;13658;44.534;18.694;2023-04-25T12:56:59;9.55;;;4.57;;
25824;SDS011;13658;44.534;18.694;2023-04-25T12:59:26;6.68;;;4.10;;
25824;SDS011;13658;44.534;18.694;2023-04-25T13:01:52;6.18;;;4.40;;
25824;SDS011;13658;44.534;18.694;2023-04-25T13:04:18;7.47;;;4.32;;
25824;SDS011;13658;44.534;18.694;2023-04-25T13:06:46;10.88;;;5.53;;
25824;SDS011;13658;44.534;18.694;2023-04-25T13:09:12;5.50;;;3.97;;
25824;SDS011;13658;44.534;18.694;2023-04-25T13:11:38;3.88;;;2.55;;
25824;SDS011;13658;44.534;18.694;2023-04-25T13:14:04;5.75;;;2.95;;
25824;SDS011;13658;44.534;18.694;2023-04-25T13:16:30;4.93;;;2.88;;
25824;SDS011;13658;44.534;18.694;2023-04-25T13:18:57;6.50;;;4.32;;
25824;SDS011;13658;44.534;18.694;2023-04-25T13:21:23;7.50;;;4.40;;
25824;SDS011;13658;44.534;18.694;2023-04-25T13:23:49;11.80;;;5.78;;
25824;SDS011;13658;44.534;18.694;2023-04-25T13:26:15;5.68;;;3.95;;
25824;SDS011;13658;44.534;18.694;2023-04-25T13:28:41;7.50;;;3.60;;
25824;SDS011;13658;44.534;18.694;2023-04-25T13:31:07;3.25;;;2.38;;
25824;SDS011;13658;44.534;18.694;2023-04-25T13:33:33;8.65;;;3.28;;
25824;SDS011;13658;44.534;18.694;2023-04-25T13:36:00;4.38;;;2.30;;
25824;SDS011;13658;44.534;18.694;2023-04-25T13:38:26;6.00;;;3.00;;
25824;SDS011;13658;44.534;18.694;2023-04-25T13:40:52;4.78;;;2.50;;
25824;SDS011;13658;44.534;18.694;2023-04-25T13:43:19;5.53;;;2.58;;
25824;SDS011;13658;44.534;18.694;2023-04-25T13:45:47;4.18;;;2.80;;
25824;SDS011;13658;44.534;18.694;2023-04-25T13:48:17;4.28;;;2.85;;
25824;SDS011;13658;44.534;18.694;2023-04-25T13:50:43;6.50;;;3.75;;
25824;SDS011;13658;44.534;18.694;2023-04-25T13:53:10;5.65;;;3.13;;
25824;SDS011;13658;44.534;18.694;2023-04-25T13:55:37;9.05;;;3.45;;
25824;SDS011;13658;44.534;18.694;2023-04-25T13:58:03;5.65;;;3.13;;
25824;SDS011;13658;44.534;18.694;2023-04-25T14:00:34;2.67;;;2.30;;
25824;SDS011;13658;44.534;18.694;2023-04-25T14:03:04;3.60;;;2.22;;
25824;SDS011;13658;44.534;18.694;2023-04-25T14:05:32;4.88;;;2.65;;
25824;SDS011;13658;44.534;18.694;2023-04-25T14:08:03;4.03;;;2.40;;
25824;SDS011;13658;44.534;18.694;2023-04-25T14:10:30;4.20;;;2.67;;
25824;SDS011;13658;44.534;18.694;2023-04-25T14:12:56;6.68;;;3.38;;
25824;SDS011;13658;44.534;18.694;2023-04-25T14:15:22;4.15;;;2.92;;
25824;SDS011;13658;44.534;18.694;2023-04-25T14:17:50;3.17;;;2.60;;
25824;SDS011;13658;44.534;18.694;2023-04-25T14:20:16;3.33;;;2.58;;
25824;SDS011;13658;44.534;18.694;2023-04-25T14:22:45;2.92;;;2.47;;
25824;SDS011;13658;44.534;18.694;2023-04-25T14:25:11;3.88;;;2.85;;
25824;SDS011;13658;44.534;18.694;2023-04-25T14:27:37;5.65;;;3.17;;
25824;SDS011;13658;44.534;18.694;2023-04-25T14:30:04;4.20;;;2.25;;
25824;SDS011;13658;44.534;18.694;2023-04-25T14:32:30;3.78;;;3.00;;
25824;SDS011;13658;44.534;18.694;2023-04-25T14:34:57;16.20;;;5.55;;
25824;SDS011;13658;44.534;18.694;2023-04-25T14:37:23;4.70;;;2.47;;
25824;SDS011;13658;44.534;18.694;2023-04-25T14:39:49;4.30;;;2.53;;
25824;SDS011;13658;44.534;18.694;2023-04-25T14:42:15;3.40;;;2.53;;
25824;SDS011;13658;44.534;18.694;2023-04-25T14:44:41;5.93;;;3.08;;
25824;SDS011;13658;44.534;18.694;2023-04-25T14:47:07;5.25;;;2.88;;
25824;SDS011;13658;44.534;18.694;2023-04-25T14:49:33;6.07;;;2.50;;
25824;SDS011;13658;44.534;18.694;2023-04-25T14:51:59;5.05;;;2.80;;
25824;SDS011;13658;44.534;18.694;2023-04-25T14:54:26;7.53;;;3.78;;
25824;SDS011;13658;44.534;18.694;2023-04-25T14:56:52;3.33;;;2.50;;